Terminal Aerodrome Forecast
Issued by NWS

Home | Current Version | Previous Version | Text Only | Print | Product List | Glossary On
Versions: 1 2 3 4 5 6 7 8 9 10 11 12 13 14
000
FTAK31 PAFA 172342
TAFAGA
TAF
PAGA 172342Z 1800/1824 04009KT P6SM FEW007 SCT040
     FM180300 VRB03KT P6SM SCT040 BKN100
     FM180900 VRB03KT 5SM -SN SCT003 BKN010 OVC030
     FM181600 03004KT P6SM SCT030 BKN050=

USA.gov is the U.S. government's official web portal to all federal, state and local government web resources and services.